Time;durP1;ratioP1;P1;durP2;ratioP2;P2;SDS_P1;SDS_P2;PMS_P1;PMS_P2;Temp;Humidity;BMP_temperature;BMP_pressure;BME280_temperature;BME280_humidity;BME280_pressure;Samples;Min_cycle;Max_cycle;Signal;HPM_P1;HPM_P2
2022/07/26 00:01:57;;;;;;;;;;;19.20;99.90;;;;;;5055580;28;20117;-68
2022/07/26 00:04:23;;;;;;;4.35;0.80;;;19.10;99.90;;;;;;5063906;28;19964;-68
2022/07/26 00:06:48;;;;;;;4.20;1.10;;;19.20;99.90;;;;;;5064548;28;20371;-68
2022/07/26 00:09:14;;;;;;;3.47;0.95;;;19.10;99.90;;;;;;5065328;28;20041;-68
2022/07/26 00:11:40;;;;;;;2.78;1.50;;;19.10;99.90;;;;;;5064733;28;20037;-68
2022/07/26 00:14:07;;;;;;;2.00;0.73;;;19.10;99.90;;;;;;5051400;28;20546;-68
2022/07/26 00:16:33;;;;;;;4.07;1.30;;;19.20;99.90;;;;;;5060847;28;20074;-68
2022/07/26 00:18:58;;;;;;;2.75;0.88;;;19.10;99.90;;;;;;5057387;28;20033;-68
2022/07/26 00:21:24;;;;;;;4.95;1.20;;;19.20;99.90;;;;;;5063143;28;20409;-68
2022/07/26 00:23:50;;;;;;;4.32;1.13;;;19.10;99.90;;;;;;5042201;28;20111;-68
2022/07/26 00:26:16;;;;;;;3.13;1.08;;;19.10;99.90;;;;;;5047564;28;20560;-68
2022/07/26 00:28:44;;;;;;;4.88;1.13;;;19.10;99.90;;;;;;5047319;28;20037;-68
2022/07/26 00:31:13;;;;;;;4.30;1.08;;;19.10;99.90;;;;;;5054554;28;20515;-68
2022/07/26 00:33:39;;;;;;;3.47;1.10;;;19.10;99.90;;;;;;5058459;28;20473;-68
2022/07/26 00:36:05;;;;;;;3.92;1.20;;;19.10;99.90;;;;;;5061770;28;20099;-69
2022/07/26 00:38:30;;;;;;;;;;;19.10;99.90;;;;;;5057410;28;20044;-68
2022/07/26 00:40:56;;;;;;;1.50;0.80;;;19.10;99.90;;;;;;5049734;28;19920;-68
2022/07/26 00:43:22;;;;;;;2.25;1.02;;;19.10;99.90;;;;;;5059137;28;20131;-68
2022/07/26 00:45:49;;;;;;;4.18;1.60;;;19.10;99.90;;;;;;5060221;28;20036;-68
2022/07/26 00:48:15;;;;;;;6.95;2.00;;;19.10;99.90;;;;;;5054155;28;20037;-68
2022/07/26 00:50:41;;;;;;;;;;;19.10;99.90;;;;;;5051217;28;20039;-68
2022/07/26 00:53:06;;;;;;;2.85;1.20;;;19.10;99.90;;;;;;5059631;28;20272;-68
2022/07/26 00:55:32;;;;;;;3.53;1.40;;;19.00;99.90;;;;;;5063691;28;20029;-68
2022/07/26 00:58:00;;;;;;;3.58;1.80;;;19.00;99.90;;;;;;5142905;22;20045;-70
2022/07/26 01:00:26;;;;;;;2.28;1.40;;;19.00;99.90;;;;;;5035482;28;20054;-69
2022/07/26 01:02:53;;;;;;;2.38;1.20;;;19.00;99.90;;;;;;5034433;28;20034;-69
2022/07/26 01:05:20;;;;;;;4.45;1.45;;;19.00;99.90;;;;;;5029405;28;20422;-70
2022/07/26 01:07:47;;;;;;;4.53;1.40;;;19.00;99.90;;;;;;5021120;28;20128;-70
2022/07/26 01:10:12;;;;;;;2.53;1.30;;;19.00;99.90;;;;;;5010611;28;20120;-69
2022/07/26 01:12:39;;;;;;;5.88;1.90;;;19.00;99.90;;;;;;5027762;28;20109;-69
2022/07/26 01:15:08;;;;;;;5.20;1.98;;;18.90;99.90;;;;;;5025621;28;20033;-70
2022/07/26 01:17:34;;;;;;;3.33;1.65;;;18.90;99.90;;;;;;5029940;28;20128;-70
2022/07/26 01:20:00;;;;;;;5.80;1.70;;;18.90;99.90;;;;;;5039601;28;20575;-69
2022/07/26 01:22:25;;;;;;;2.75;1.70;;;18.90;99.90;;;;;;5024314;28;20045;-70
2022/07/26 01:24:51;;;;;;;2.55;1.58;;;19.00;99.90;;;;;;5027492;28;20072;-69
2022/07/26 01:27:17;;;;;;;3.20;1.50;;;18.90;99.90;;;;;;5028894;28;20398;-70
2022/07/26 01:29:42;;;;;;;4.47;1.90;;;18.90;99.90;;;;;;5033507;28;20541;-69
2022/07/26 01:32:08;;;;;;;3.30;1.80;;;18.90;99.90;;;;;;5030172;28;20040;-69
2022/07/26 01:34:34;;;;;;;2.47;1.45;;;18.90;99.90;;;;;;5031625;28;20128;-69
2022/07/26 01:36:59;;;;;;;2.92;1.55;;;18.90;99.90;;;;;;5021856;28;20037;-70
2022/07/26 01:39:25;;;;;;;3.17;1.15;;;18.90;99.90;;;;;;5024003;28;20049;-69
2022/07/26 01:41:51;;;;;;;2.38;1.25;;;18.80;99.90;;;;;;5037170;28;20116;-69
2022/07/26 01:44:16;;;;;;;4.38;1.20;;;18.80;99.90;;;;;;5029241;28;20069;-69
2022/07/26 01:46:42;;;;;;;4.57;1.38;;;18.80;99.90;;;;;;5030760;28;20033;-69
2022/07/26 01:49:08;;;;;;;4.22;1.50;;;18.80;99.90;;;;;;5024689;28;20049;-69
2022/07/26 01:51:34;;;;;;;4.45;1.40;;;18.80;99.90;;;;;;5024370;28;20045;-70
2022/07/26 01:54:00;;;;;;;4.65;1.27;;;18.80;99.90;;;;;;5030861;28;20033;-70
2022/07/26 01:56:26;;;;;;;4.15;1.90;;;18.80;99.90;;;;;;5028269;28;20033;-69
2022/07/26 01:58:52;;;;;;;5.88;1.55;;;18.80;99.90;;;;;;5028620;28;20033;-69
2022/07/26 02:01:18;;;;;;;3.80;1.70;;;18.80;99.90;;;;;;5029350;28;20076;-69
2022/07/26 02:03:43;;;;;;;2.75;1.20;;;18.70;99.90;;;;;;5022312;28;20042;-70
2022/07/26 02:06:09;;;;;;;4.13;1.30;;;18.70;99.90;;;;;;5027749;28;20112;-70
2022/07/26 02:08:35;;;;;;;4.05;1.17;;;18.70;99.90;;;;;;5029853;28;20191;-69
2022/07/26 02:11:01;;;;;;;4.03;1.30;;;18.70;99.90;;;;;;5023678;28;20394;-69
2022/07/26 02:13:38;;;;;;;4.47;1.20;;;18.70;99.90;;;;;;5018045;28;20040;-69
2022/07/26 02:16:06;;;;;;;2.80;0.85;;;18.70;99.90;;;;;;5022078;28;20424;-70
2022/07/26 02:18:32;;;;;;;3.47;0.75;;;18.70;99.90;;;;;;5029238;28;20374;-69
2022/07/26 02:20:59;;;;;;;;;;;18.70;99.90;;;;;;5047886;28;20501;-69
2022/07/26 02:23:25;;;;;;;5.13;0.88;;;18.60;99.90;;;;;;5024315;28;20015;-69
2022/07/26 02:25:51;;;;;;;2.70;0.63;;;18.60;99.90;;;;;;5022709;28;20127;-69
2022/07/26 02:28:17;;;;;;;3.65;1.40;;;18.50;99.90;;;;;;5028763;28;20086;-69
2022/07/26 02:30:45;;;;;;;2.05;1.05;;;18.50;99.90;;;;;;5032259;28;20078;-69
2022/07/26 02:33:10;;;;;;;1.73;0.88;;;18.50;99.90;;;;;;5033544;28;20048;-69
2022/07/26 02:35:37;;;;;;;3.10;1.00;;;18.50;99.90;;;;;;5016792;28;20034;-69
2022/07/26 02:38:08;;;;;;;1.98;0.88;;;18.40;99.90;;;;;;5024505;28;20068;-70
2022/07/26 02:40:35;;;;;;;2.67;0.98;;;18.40;99.90;;;;;;5020309;28;20041;-69
2022/07/26 02:43:00;;;;;;;5.63;1.45;;;18.40;99.90;;;;;;5019536;28;20104;-69
2022/07/26 02:45:26;;;;;;;3.58;1.10;;;18.40;99.90;;;;;;5022640;28;20382;-69
2022/07/26 02:47:54;;;;;;;5.07;0.70;;;18.40;99.90;;;;;;5032393;28;20048;-69
2022/07/26 02:50:21;;;;;;;2.78;0.93;;;18.30;99.90;;;;;;5033208;28;20048;-69
2022/07/26 02:52:47;;;;;;;3.50;0.80;;;18.30;99.90;;;;;;5021381;28;20133;-69
2022/07/26 02:55:21;;;;;;;8.88;0.90;;;18.30;99.90;;;;;;5017551;28;20030;-69
2022/07/26 02:57:47;;;;;;;7.70;1.10;;;18.20;99.90;;;;;;5028325;28;20061;-69
2022/07/26 03:00:15;;;;;;;2.88;0.60;;;18.20;99.90;;;;;;5028920;28;20048;-69
2022/07/26 03:02:41;;;;;;;2.80;0.70;;;18.20;99.90;;;;;;5024588;28;20041;-69
2022/07/26 03:05:07;;;;;;;;;;;18.20;99.90;;;;;;5021729;28;20501;-68
2022/07/26 03:07:33;;;;;;;4.85;0.80;;;18.20;99.90;;;;;;5021891;28;20013;-68
2022/07/26 03:09:59;;;;;;;3.25;1.00;;;18.10;99.90;;;;;;5030057;28;20040;-69
2022/07/26 03:12:25;;;;;;;2.95;0.63;;;18.10;99.90;;;;;;5021455;28;20103;-69
2022/07/26 03:14:51;;;;;;;2.75;0.60;;;18.00;99.90;;;;;;5023435;28;20090;-69
2022/07/26 03:17:17;;;;;;;3.58;1.00;;;18.00;99.90;;;;;;5025301;28;20128;-69
2022/07/26 03:19:43;;;;;;;2.50;0.50;;;18.00;99.90;;;;;;5027105;28;20049;-69
2022/07/26 03:22:09;;;;;;;3.33;0.70;;;17.90;99.90;;;;;;5022017;28;20034;-69
2022/07/26 03:24:35;;;;;;;4.95;1.13;;;17.90;99.90;;;;;;5020621;28;20061;-69
2022/07/26 03:27:00;;;;;;;4.65;0.73;;;17.90;99.90;;;;;;5028495;28;20036;-69
2022/07/26 03:29:26;;;;;;;3.05;0.47;;;17.90;99.90;;;;;;5025729;28;20045;-69
2022/07/26 03:31:51;;;;;;;2.60;0.68;;;17.90;99.90;;;;;;5027705;28;20065;-69
2022/07/26 03:34:18;;;;;;;4.18;0.70;;;17.90;99.90;;;;;;5026143;28;20542;-69
2022/07/26 03:36:43;;;;;;;;;;;17.80;99.90;;;;;;5024535;28;20458;-69
2022/07/26 03:39:09;;;;;;;1.95;0.63;;;17.80;99.90;;;;;;5026844;28;19929;-69
2022/07/26 03:41:35;;;;;;;2.70;0.52;;;17.80;99.90;;;;;;5021136;28;20389;-69
2022/07/26 03:44:00;;;;;;;2.35;0.70;;;17.70;99.90;;;;;;5024988;28;20040;-69
2022/07/26 03:46:27;;;;;;;4.03;0.70;;;17.70;99.90;;;;;;5021723;28;20064;-69
2022/07/26 03:48:52;;;;;;;0.88;0.40;;;17.70;99.90;;;;;;5030014;28;20043;-69
2022/07/26 03:51:18;;;;;;;1.67;0.30;;;17.70;99.90;;;;;;5024299;28;20421;-69
2022/07/26 03:53:44;;;;;;;2.10;0.52;;;17.70;99.90;;;;;;5029138;28;20049;-69
2022/07/26 03:56:28;;;;;;;4.68;0.50;;;17.70;99.90;;;;;;5020637;28;20387;-69
2022/07/26 03:58:54;;;;;;;4.18;0.40;;;17.70;99.90;;;;;;5024484;28;20109;-69
2022/07/26 04:01:21;;;;;;;1.58;0.30;;;17.60;99.90;;;;;;5026450;28;20550;-69
2022/07/26 04:03:49;;;;;;;2.03;0.52;;;17.70;99.90;;;;;;5035355;28;20033;-69
2022/07/26 04:06:15;;;;;;;2.75;0.80;;;17.70;99.90;;;;;;5030166;28;20045;-69
2022/07/26 04:08:41;;;;;;;3.30;0.32;;;17.60;99.90;;;;;;5022317;28;20118;-69
2022/07/26 04:11:06;;;;;;;2.08;0.50;;;17.60;99.90;;;;;;5021013;28;20038;-69
2022/07/26 04:13:34;;;;;;;1.48;0.45;;;17.70;99.90;;;;;;5027351;28;20052;-69
2022/07/26 04:16:03;;;;;;;2.42;0.68;;;17.60;99.90;;;;;;5025581;28;20302;-69
2022/07/26 04:18:28;;;;;;;1.35;0.22;;;17.60;99.90;;;;;;5020092;28;20064;-69
2022/07/26 04:20:54;;;;;;;4.63;0.60;;;17.60;99.90;;;;;;5031523;28;20037;-69
2022/07/26 04:23:20;;;;;;;2.45;0.30;;;17.70;99.90;;;;;;5031850;28;20041;-69
2022/07/26 04:25:45;;;;;;;3.72;0.40;;;17.60;99.90;;;;;;5027206;28;20113;-69
2022/07/26 04:28:11;;;;;;;1.33;0.45;;;17.60;99.90;;;;;;5024727;28;20052;-69
2022/07/26 04:30:38;;;;;;;2.30;0.57;;;17.60;99.90;;;;;;5026392;28;20116;-70
2022/07/26 04:33:04;;;;;;;2.63;0.60;;;17.50;99.90;;;;;;5023695;28;20030;-70
2022/07/26 04:35:30;;;;;;;1.38;0.35;;;17.50;99.90;;;;;;5026233;28;20038;-69
2022/07/26 04:37:55;;;;;;;2.38;0.50;;;17.40;99.90;;;;;;5018553;28;20041;-69
2022/07/26 04:40:22;;;;;;;1.90;0.32;;;17.50;99.90;;;;;;5031150;28;20064;-69
2022/07/26 04:42:49;;;;;;;2.95;0.70;;;17.40;99.90;;;;;;5032152;28;20112;-69
2022/07/26 04:45:15;;;;;;;2.15;0.40;;;17.40;99.90;;;;;;5035794;28;20132;-69
2022/07/26 04:47:45;;;;;;;1.50;0.35;;;17.40;99.90;;;;;;5021346;28;20494;-69
2022/07/26 04:50:11;;;;;;;1.17;0.38;;;17.40;99.90;;;;;;5026068;28;20525;-69
2022/07/26 04:52:38;;;;;;;1.48;0.30;;;17.40;99.90;;;;;;5025488;28;20037;-69
2022/07/26 04:55:08;;;;;;;2.50;0.40;;;17.40;99.90;;;;;;5020622;28;20040;-69
2022/07/26 04:57:33;;;;;;;1.40;0.30;;;17.40;99.90;;;;;;5039137;28;20063;-69
2022/07/26 05:00:00;;;;;;;1.50;0.20;;;17.50;99.90;;;;;;5030447;28;20455;-69
2022/07/26 05:02:26;;;;;;;1.25;0.32;;;17.50;99.90;;;;;;5032371;28;20450;-69
2022/07/26 05:04:51;;;;;;;4.38;0.57;;;17.50;99.90;;;;;;5020271;28;20060;-69
2022/07/26 05:07:17;;;;;;;4.57;0.40;;;17.50;99.90;;;;;;5023143;28;20033;-69
2022/07/26 05:09:42;;;;;;;2.15;0.50;;;17.50;99.90;;;;;;5019657;28;20130;-69
2022/07/26 05:12:08;;;;;;;3.95;0.38;;;17.50;99.90;;;;;;5013983;28;20042;-69
2022/07/26 05:14:36;;;;;;;2.08;0.32;;;17.40;99.90;;;;;;5025110;28;20102;-69
2022/07/26 05:17:02;;;;;;;1.38;0.22;;;17.40;99.90;;;;;;5025464;28;20416;-69
2022/07/26 05:19:28;;;;;;;2.58;0.38;;;17.40;99.90;;;;;;5029112;28;20041;-69
2022/07/26 05:21:53;;;;;;;2.90;0.63;;;17.50;99.90;;;;;;5032172;28;20041;-69
2022/07/26 05:24:19;;;;;;;3.33;0.70;;;17.40;99.90;;;;;;5022968;28;20041;-69
2022/07/26 05:26:45;;;;;;;1.45;0.75;;;17.40;99.90;;;;;;5022239;28;20420;-69
2022/07/26 05:29:11;;;;;;;2.60;0.50;;;17.40;99.90;;;;;;5033728;28;20041;-69
2022/07/26 05:31:36;;;;;;;2.00;0.40;;;17.50;99.90;;;;;;5023324;28;20528;-69
2022/07/26 05:34:02;;;;;;;5.40;1.42;;;17.40;99.90;;;;;;5019644;28;20034;-70
2022/07/26 05:36:31;;;;;;;2.00;0.30;;;17.50;99.90;;;;;;5022839;28;20041;-70
2022/07/26 05:38:56;;;;;;;2.47;0.57;;;17.50;99.90;;;;;;5018932;28;20404;-69
2022/07/26 05:41:22;;;;;;;2.83;0.50;;;17.50;99.90;;;;;;5024917;28;20072;-70
2022/07/26 05:43:48;;;;;;;4.15;0.68;;;17.50;99.90;;;;;;5029616;28;21057;-73
2022/07/26 05:46:14;;;;;;;1.55;0.28;;;17.50;99.90;;;;;;5027405;28;20038;-71
2022/07/26 05:48:41;;;;;;;1.77;0.43;;;17.50;99.90;;;;;;5022104;28;20406;-71
2022/07/26 05:51:10;;;;;;;2.20;0.35;;;17.50;99.90;;;;;;5023878;28;20120;-69
2022/07/26 05:53:36;;;;;;;2.83;0.77;;;17.50;99.90;;;;;;5023660;28;20482;-69
2022/07/26 05:56:03;;;;;;;;;;;17.40;99.90;;;;;;5021470;28;20041;-69
2022/07/26 05:58:28;;;;;;;2.13;0.40;;;17.40;99.90;;;;;;5019380;28;19917;-69
2022/07/26 06:00:54;;;;;;;1.35;0.20;;;17.50;99.90;;;;;;5027684;28;20056;-69
2022/07/26 06:03:22;;;;;;;1.05;0.20;;;17.50;99.90;;;;;;5006306;28;20084;-69
2022/07/26 06:05:50;;;;;;;1.23;0.52;;;17.50;99.90;;;;;;5017137;28;20055;-69
2022/07/26 06:08:16;;;;;;;1.52;0.30;;;17.50;99.90;;;;;;5024541;28;20041;-69
2022/07/26 06:10:42;;;;;;;1.65;0.47;;;17.50;99.90;;;;;;5009011;28;20056;-69
2022/07/26 06:13:07;;;;;;;3.13;0.32;;;17.50;99.90;;;;;;5025933;28;20509;-68
2022/07/26 06:15:33;;;;;;;2.20;0.50;;;17.50;99.90;;;;;;5022616;28;20069;-68
2022/07/26 06:17:59;;;;;;;2.47;0.15;;;17.60;99.90;;;;;;5029786;28;20029;-71
2022/07/26 06:20:24;;;;;;;1.65;0.52;;;17.60;99.90;;;;;;5014336;28;20053;-70
2022/07/26 06:22:51;;;;;;;1.73;0.38;;;17.60;99.90;;;;;;5018989;28;20044;-69
2022/07/26 06:25:16;;;;;;;2.83;0.75;;;17.60;99.90;;;;;;5035223;28;20041;-69
2022/07/26 06:27:42;;;;;;;2.00;0.30;;;17.70;99.90;;;;;;5020082;28;20079;-70
2022/07/26 06:30:08;;;;;;;7.22;0.50;;;17.60;99.90;;;;;;5018582;28;20037;-69
2022/07/26 06:32:34;;;;;;;2.65;0.50;;;17.50;99.90;;;;;;5017745;28;20154;-72
2022/07/26 06:35:00;;;;;;;2.17;0.60;;;17.50;99.90;;;;;;5017072;28;20025;-69
2022/07/26 06:37:25;;;;;;;1.98;0.35;;;17.40;99.90;;;;;;5025348;28;20041;-70
2022/07/26 06:39:51;;;;;;;1.80;0.20;;;17.40;99.90;;;;;;5026343;28;20036;-69
2022/07/26 06:42:17;;;;;;;1.33;0.20;;;17.40;99.90;;;;;;5027537;28;20132;-69
2022/07/26 06:44:42;;;;;;;2.70;0.32;;;17.30;99.90;;;;;;5025982;28;20500;-70
2022/07/26 06:47:08;;;;;;;3.72;0.40;;;17.30;99.90;;;;;;5022951;28;20041;-69
2022/07/26 06:49:34;;;;;;;3.50;0.45;;;17.30;99.90;;;;;;5023270;28;20143;-69
2022/07/26 06:51:59;;;;;;;2.20;0.38;;;17.40;99.90;;;;;;5031479;28;20037;-69
2022/07/26 06:54:25;;;;;;;3.60;1.30;;;17.30;99.90;;;;;;5034990;28;20500;-69
2022/07/26 06:56:51;;;;;;;5.32;0.60;;;17.30;99.90;;;;;;5029902;28;20060;-69
2022/07/26 06:59:16;;;;;;;3.00;0.55;;;17.30;99.90;;;;;;5098680;22;20040;-73
2022/07/26 07:01:42;;;;;;;1.67;0.45;;;17.40;99.90;;;;;;5038509;28;20037;-73
2022/07/26 07:04:08;;;;;;;2.35;0.70;;;17.40;99.90;;;;;;5044397;28;20041;-73
2022/07/26 07:06:34;;;;;;;;;;;17.50;99.90;;;;;;5044312;28;20075;-74
2022/07/26 07:09:00;;;;;;;3.35;0.60;;;17.60;99.90;;;;;;5040590;28;19963;-74
2022/07/26 07:11:25;;;;;;;1.23;0.25;;;17.50;99.90;;;;;;5041631;28;20474;-74
2022/07/26 07:13:51;;;;;;;;;;;17.60;99.90;;;;;;5043425;28;20075;-73
2022/07/26 07:16:17;;;;;;;4.68;0.45;;;17.70;99.90;;;;;;5041954;28;19925;-74
2022/07/26 07:18:43;;;;;;;1.75;0.40;;;17.80;99.90;;;;;;5042367;28;20472;-74
2022/07/26 07:21:14;;;;;;;2.63;0.65;;;17.80;99.90;;;;;;5024723;28;20405;-74
2022/07/26 07:23:40;;;;;;;3.38;0.60;;;17.90;99.90;;;;;;5043922;28;20041;-74
2022/07/26 07:26:06;;;;;;;2.35;0.50;;;17.90;99.90;;;;;;5040224;28;20869;-74
2022/07/26 07:28:32;;;;;;;2.65;0.60;;;17.90;99.90;;;;;;5044343;28;20265;-74
2022/07/26 07:30:58;;;;;;;5.78;0.73;;;17.90;99.90;;;;;;5042685;28;20048;-74
2022/07/26 07:33:24;;;;;;;1.02;0.20;;;18.00;99.90;;;;;;5043362;28;20408;-74
2022/07/26 07:35:51;;;;;;;1.40;0.30;;;18.00;99.90;;;;;;5022803;28;20207;-74
2022/07/26 07:38:17;;;;;;;2.17;0.43;;;17.90;99.90;;;;;;5045368;28;20485;-74
2022/07/26 07:40:42;;;;;;;5.82;0.60;;;17.90;99.90;;;;;;5042928;28;20093;-74
2022/07/26 07:43:08;;;;;;;2.08;0.45;;;17.80;99.90;;;;;;5021619;28;20044;-73
2022/07/26 07:45:34;;;;;;;4.05;0.60;;;17.70;99.90;;;;;;5041602;28;20129;-73
2022/07/26 07:47:59;;;;;;;3.75;0.50;;;17.60;99.90;;;;;;5038797;28;20048;-72
2022/07/26 07:50:25;;;;;;;3.10;0.63;;;17.50;99.90;;;;;;5025606;28;20048;-72
2022/07/26 07:52:51;;;;;;;3.20;0.40;;;17.40;99.90;;;;;;5042143;28;20378;-72
2022/07/26 07:55:16;;;;;;;2.45;0.57;;;17.40;99.90;;;;;;5025623;28;20076;-72
2022/07/26 07:57:42;;;;;;;1.83;0.55;;;17.40;99.90;;;;;;5037752;28;20033;-72
2022/07/26 08:00:11;;;;;;;2.42;0.40;;;17.40;99.90;;;;;;5040602;28;20127;-72
2022/07/26 08:02:36;;;;;;;2.80;0.50;;;17.30;99.90;;;;;;5024182;28;20037;-72
2022/07/26 08:05:03;;;;;;;3.28;0.75;;;17.40;99.90;;;;;;5045982;28;20029;-72
2022/07/26 08:07:29;;;;;;;2.10;0.40;;;17.40;99.90;;;;;;5041594;28;20119;-72
2022/07/26 08:09:56;;;;;;;;;;;17.50;99.90;;;;;;5048455;28;20045;-72
2022/07/26 08:12:24;;;;;;;2.38;0.57;;;17.60;99.90;;;;;;5038330;28;20327;-72
2022/07/26 08:14:49;;;;;;;1.90;0.32;;;17.60;99.90;;;;;;5046670;28;20047;-72
2022/07/26 08:17:16;;;;;;;3.42;0.75;;;17.70;99.90;;;;;;5048294;28;20108;-72
2022/07/26 08:19:42;;;;;;;2.72;0.45;;;17.70;99.90;;;;;;5044277;28;20052;-72
2022/07/26 08:22:08;;;;;;;7.30;0.88;;;17.70;99.90;;;;;;5044657;28;20334;-72
2022/07/26 08:24:34;;;;;;;2.35;0.65;;;17.70;99.90;;;;;;5049692;28;21343;-72
2022/07/26 08:27:00;;;;;;;4.40;0.60;;;17.70;99.90;;;;;;5047206;28;20040;-72
2022/07/26 08:29:26;;;;;;;2.45;0.60;;;17.70;99.90;;;;;;5044002;28;20051;-73
2022/07/26 08:31:51;;;;;;;1.77;0.45;;;17.70;99.90;;;;;;5041410;28;20033;-73
2022/07/26 08:34:18;;;;;;;4.32;0.60;;;17.80;99.90;;;;;;5046002;28;20039;-73
2022/07/26 08:36:46;;;;;;;3.35;0.75;;;17.70;99.90;;;;;;5046380;28;20457;-73
2022/07/26 08:39:12;;;;;;;2.45;0.55;;;17.70;99.90;;;;;;5021859;28;20041;-73
2022/07/26 08:41:41;;;;;;;2.85;0.70;;;17.70;99.90;;;;;;5046785;28;20386;-73
2022/07/26 08:44:09;;;;;;;3.33;0.43;;;17.70;99.90;;;;;;5043642;28;20059;-73
2022/07/26 08:46:39;;;;;;;1.27;0.35;;;17.70;99.90;;;;;;5046952;28;20485;-72
2022/07/26 08:49:07;;;;;;;2.80;0.70;;;17.80;99.90;;;;;;5047478;28;20067;-73
2022/07/26 08:51:33;;;;;;;2.17;0.40;;;17.90;99.90;;;;;;5046563;28;20072;-72
2022/07/26 08:54:00;;;;;;;3.40;0.80;;;18.00;99.90;;;;;;5042732;28;20464;-72
2022/07/26 08:56:26;;;;;;;3.75;1.05;;;18.10;99.90;;;;;;5045426;28;20408;-73
2022/07/26 08:58:51;;;;;;;5.97;1.30;;;18.10;99.90;;;;;;5045779;28;20037;-72
2022/07/26 09:01:17;;;;;;;4.78;1.15;;;18.10;99.90;;;;;;5044268;28;20099;-73
2022/07/26 09:03:44;;;;;;;3.58;1.13;;;18.10;99.90;;;;;;5045527;28;20045;-72
2022/07/26 09:06:10;;;;;;;8.45;1.77;;;18.00;99.90;;;;;;5047264;28;20036;-72
2022/07/26 09:08:36;;;;;;;4.95;1.20;;;18.00;99.90;;;;;;5043535;28;20040;-72
2022/07/26 09:11:02;;;;;;;6.72;1.02;;;17.90;99.90;;;;;;5039585;28;20413;-73
2022/07/26 09:13:51;;;;;;;3.85;1.17;;;17.90;99.90;;;;;;5038175;28;20034;-72
2022/07/26 09:16:17;;;;;;;2.63;0.82;;;17.80;99.90;;;;;;5040977;28;20068;-72
2022/07/26 09:18:43;;;;;;;2.40;0.80;;;17.70;99.90;;;;;;5042759;28;20041;-73
2022/07/26 09:21:33;;;;;;;5.50;0.95;;;17.70;99.90;;;;;;5042414;28;20041;-72
2022/07/26 09:23:59;;;;;;;4.88;0.82;;;17.70;99.90;;;;;;5038114;28;20167;-72
2022/07/26 09:26:25;;;;;;;6.20;1.23;;;17.80;99.90;;;;;;5042229;28;20041;-72
2022/07/26 09:29:04;;;;;;;;;;;17.70;99.90;;;;;;5047286;28;20068;-72
2022/07/26 09:31:30;;;;;;;3.45;0.93;;;17.70;99.90;;;;;;5042794;28;20023;-72
2022/07/26 09:33:57;;;;;;;6.53;2.35;;;17.70;99.90;;;;;;5046942;28;20129;-72
2022/07/26 09:36:23;;;;;;;6.13;1.20;;;17.80;99.90;;;;;;5044414;28;20422;-73
2022/07/26 09:38:51;;;;;;;9.27;1.02;;;17.80;99.90;;;;;;5043777;28;20389;-73
2022/07/26 09:41:21;;;;;;;7.15;1.30;;;17.90;99.90;;;;;;5043542;28;20049;-73
2022/07/26 09:43:48;;;;;;;4.32;1.00;;;18.00;99.90;;;;;;5042706;28;20049;-72
2022/07/26 09:46:14;;;;;;;4.45;0.90;;;18.00;99.90;;;;;;5037022;28;20169;-73
2022/07/26 09:48:41;;;;;;;6.20;0.90;;;18.20;99.90;;;;;;5039031;28;20028;-73
2022/07/26 09:51:07;;;;;;;2.97;1.00;;;18.30;99.90;;;;;;5041096;28;20033;-73
2022/07/26 09:53:40;;;;;;;;;;;18.50;99.90;;;;;;5044630;28;20159;-73
2022/07/26 09:56:07;;;;;;;5.90;0.80;;;18.60;99.90;;;;;;5023758;28;19938;-73
2022/07/26 09:58:32;;;;;;;3.60;1.08;;;18.70;99.90;;;;;;5040904;28;20045;-73
2022/07/26 10:00:58;;;;;;;3.42;0.70;;;18.70;99.90;;;;;;5044201;28;20179;-73
2022/07/26 10:03:24;;;;;;;7.07;0.98;;;18.80;99.90;;;;;;5045244;28;20052;-73
2022/07/26 10:05:50;;;;;;;4.75;0.93;;;18.80;99.90;;;;;;5047383;28;20532;-73
2022/07/26 10:08:17;;;;;;;4.03;0.80;;;18.80;99.90;;;;;;5043031;28;20529;-73
2022/07/26 10:10:49;;;;;;;5.13;0.68;;;18.90;99.90;;;;;;5042895;28;20037;-73
2022/07/26 10:13:15;;;;;;;3.42;0.65;;;18.90;99.90;;;;;;5037700;28;20127;-73
2022/07/26 10:15:46;;;;;;;5.07;0.95;;;19.00;99.90;;;;;;5042193;28;20051;-73
2022/07/26 10:18:36;;;;;;;3.05;0.40;;;18.90;99.90;;;;;;5044393;28;20045;-73
2022/07/26 10:21:14;;;;;;;3.47;0.68;;;18.90;99.90;;;;;;5040114;28;20037;-73
2022/07/26 10:23:45;;;;;;;2.63;0.57;;;18.90;99.90;;;;;;5040588;28;20051;-72
2022/07/26 10:26:32;;;;;;;3.13;0.60;;;18.80;99.90;;;;;;5041313;28;20048;-73
2022/07/26 10:29:16;;;;;;;1.55;0.52;;;18.90;99.90;;;;;;5059621;28;20488;-72
2022/07/26 10:32:09;;;;;;;2.25;0.70;;;19.00;99.90;;;;;;5045829;28;20051;-73
2022/07/26 10:34:38;;;;;;;1.50;0.60;;;19.00;99.90;;;;;;5047071;28;20083;-72
2022/07/26 10:37:06;;;;;;;1.70;0.77;;;19.20;99.90;;;;;;5042455;28;20147;-73
2022/07/26 10:39:32;;;;;;;3.28;0.40;;;19.30;99.90;;;;;;5040378;28;20411;-72
2022/07/26 10:42:03;;;;;;;0.70;0.20;;;19.30;99.90;;;;;;5036114;28;20041;-72
2022/07/26 10:44:30;;;;;;;4.53;0.77;;;19.30;99.90;;;;;;5041736;28;20033;-72
2022/07/26 10:47:06;;;;;;;3.53;0.55;;;19.30;99.90;;;;;;5043345;28;20041;-72
2022/07/26 10:49:37;;;;;;;4.38;0.55;;;19.40;99.90;;;;;;5039337;28;20132;-72
2022/07/26 10:52:13;;;;;;;2.38;0.60;;;19.40;99.90;;;;;;5038681;28;20128;-72
2022/07/26 10:55:11;;;;;;;2.28;0.52;;;19.60;99.90;;;;;;5042342;28;20084;-72
2022/07/26 10:57:39;;;;;;;1.85;0.45;;;19.60;99.90;;;;;;5011002;28;20528;-73
2022/07/26 11:00:17;;;;;;;2.80;0.57;;;19.70;99.90;;;;;;5040888;28;20048;-73
2022/07/26 11:02:47;;;;;;;6.93;0.45;;;19.70;99.90;;;;;;5045831;28;20065;-72
2022/07/26 11:05:15;;;;;;;1.10;0.45;;;19.80;99.90;;;;;;5046338;28;20174;-72
2022/07/26 11:08:00;;;;;;;1.65;0.32;;;19.90;99.90;;;;;;5030230;28;20041;-72
2022/07/26 11:10:31;;;;;;;2.45;0.60;;;20.00;99.90;;;;;;5045253;28;20459;-72
2022/07/26 11:13:10;;;;;;;2.88;0.50;;;20.00;99.90;;;;;;5043261;28;20122;-73
2022/07/26 11:15:42;;;;;;;4.10;0.50;;;20.00;99.90;;;;;;5042896;28;20041;-72
2022/07/26 11:18:08;;;;;;;2.28;0.47;;;20.00;99.90;;;;;;5040273;28;20029;-72
2022/07/26 11:20:34;;;;;;;4.63;0.65;;;19.90;99.90;;;;;;5040156;28;20040;-72
2022/07/26 11:23:00;;;;;;;3.00;0.88;;;19.90;99.90;;;;;;5040412;28;20045;-72
2022/07/26 11:25:25;;;;;;;1.80;0.47;;;19.80;99.90;;;;;;5027795;28;20033;-73
2022/07/26 11:28:02;;;;;;;1.55;0.30;;;19.80;99.90;;;;;;5026306;28;20182;-72
2022/07/26 11:30:28;;;;;;;2.72;0.70;;;19.80;99.90;;;;;;5041273;28;20405;-72
2022/07/26 11:32:57;;;;;;;;;;;19.70;99.90;;;;;;5043982;28;20116;-72
2022/07/26 11:35:24;;;;;;;3.15;0.65;;;19.70;99.90;;;;;;5040824;28;19917;-73
2022/07/26 11:37:55;;;;;;;1.98;0.55;;;19.70;99.90;;;;;;5042441;28;20484;-72
2022/07/26 11:40:44;;;;;;;1.80;0.57;;;19.70;99.90;;;;;;5042036;28;20052;-73
2022/07/26 11:43:09;;;;;;;1.30;0.50;;;19.70;99.90;;;;;;5043272;28;20048;-72
2022/07/26 11:45:35;;;;;;;3.05;0.57;;;19.70;99.90;;;;;;5044597;28;20041;-73
2022/07/26 11:48:01;;;;;;;2.38;0.32;;;19.80;99.90;;;;;;5048052;28;20210;-73
2022/07/26 11:50:27;;;;;;;1.70;0.50;;;19.80;99.90;;;;;;5045009;28;20053;-73
2022/07/26 11:52:53;;;;;;;3.22;0.50;;;19.90;99.90;;;;;;5050729;28;20037;-73
2022/07/26 11:55:29;;;;;;;2.67;0.60;;;20.00;99.90;;;;;;5052071;28;20040;-72
2022/07/26 11:57:56;;;;;;;3.50;0.70;;;20.00;99.90;;;;;;5041976;28;20036;-72
2022/07/26 12:00:22;;;;;;;1.55;0.45;;;20.10;99.90;;;;;;5043805;28;20049;-72
2022/07/26 12:02:49;;;;;;;2.60;0.43;;;20.10;99.90;;;;;;5047642;28;20060;-72
2022/07/26 12:05:18;;;;;;;3.92;0.63;;;20.20;99.90;;;;;;5048430;28;20112;-73
2022/07/26 12:07:55;;;;;;;2.60;0.50;;;20.10;99.90;;;;;;5046900;28;20047;-73
2022/07/26 12:10:21;;;;;;;3.72;0.60;;;20.10;99.90;;;;;;5046042;28;20045;-72
2022/07/26 12:12:46;;;;;;;1.55;0.30;;;20.00;99.90;;;;;;5036960;28;20036;-72
2022/07/26 12:15:14;;;;;;;2.22;0.60;;;20.10;99.90;;;;;;5045905;28;20400;-72
2022/07/26 12:17:57;;;;;;;2.17;0.50;;;20.10;99.90;;;;;;5047148;28;20120;-72
2022/07/26 12:20:26;;;;;;;3.05;0.57;;;20.20;99.90;;;;;;5044725;28;20041;-73
2022/07/26 12:23:04;;;;;;;3.97;0.80;;;20.20;99.90;;;;;;5040597;28;20044;-72
2022/07/26 12:25:31;;;;;;;5.30;0.82;;;20.30;99.90;;;;;;5048334;28;20080;-72
2022/07/26 12:27:58;;;;;;;3.40;0.60;;;20.20;99.90;;;;;;5046553;28;20446;-72
2022/07/26 12:30:24;;;;;;;1.67;0.32;;;20.30;99.90;;;;;;5039488;28;20045;-72
2022/07/26 12:32:50;;;;;;;3.72;0.80;;;20.30;99.90;;;;;;5046669;28;20065;-73
2022/07/26 12:35:34;;;;;;;2.45;0.38;;;20.20;99.90;;;;;;5047100;28;20037;-72
2022/07/26 12:38:00;;;;;;;3.05;0.45;;;20.10;99.90;;;;;;5034946;28;20080;-73
2022/07/26 12:40:28;;;;;;;1.50;0.40;;;20.10;99.90;;;;;;5038413;28;20371;-73
2022/07/26 12:42:59;;;;;;;1.23;0.38;;;20.00;99.90;;;;;;5042872;28;20470;-73
2022/07/26 12:45:26;;;;;;;2.95;0.47;;;20.00;99.90;;;;;;5043303;28;20129;-72
2022/07/26 12:47:53;;;;;;;2.88;0.55;;;20.00;99.90;;;;;;5045977;28;20043;-72
2022/07/26 12:50:21;;;;;;;2.00;0.52;;;20.20;99.90;;;;;;5038123;28;20561;-73
2022/07/26 12:52:47;;;;;;;2.08;0.50;;;20.50;99.90;;;;;;5042057;28;20114;-73